sensor_id;sensor_type;location;lat;lon;timestamp;P1;durP1;ratioP1;P2;durP2;ratioP2
23370;SDS011;11858;51.056;3.712;2024-03-02T00:01:33;0.80;;;0.80;;
23370;SDS011;11858;51.056;3.712;2024-03-02T00:03:59;4.20;;;1.23;;
23370;SDS011;11858;51.056;3.712;2024-03-02T00:06:25;1.50;;;1.40;;
23370;SDS011;11858;51.056;3.712;2024-03-02T00:08:51;0.85;;;0.85;;
23370;SDS011;11858;51.056;3.712;2024-03-02T00:11:17;1.38;;;1.23;;
23370;SDS011;11858;51.056;3.712;2024-03-02T00:13:44;2.78;;;1.30;;
23370;SDS011;11858;51.056;3.712;2024-03-02T00:16:11;1.48;;;1.27;;
23370;SDS011;11858;51.056;3.712;2024-03-02T00:18:37;1.63;;;0.85;;
23370;SDS011;11858;51.056;3.712;2024-03-02T00:21:03;3.15;;;1.40;;
23370;SDS011;11858;51.056;3.712;2024-03-02T00:23:31;1.20;;;1.10;;
23370;SDS011;11858;51.056;3.712;2024-03-02T00:25:57;0.80;;;0.80;;
23370;SDS011;11858;51.056;3.712;2024-03-02T00:28:34;2.08;;;1.05;;
23370;SDS011;11858;51.056;3.712;2024-03-02T00:33:39;1.08;;;1.08;;
23370;SDS011;11858;51.056;3.712;2024-03-02T00:36:07;1.92;;;1.55;;
23370;SDS011;11858;51.056;3.712;2024-03-02T00:38:34;2.05;;;1.60;;
23370;SDS011;11858;51.056;3.712;2024-03-02T00:41:07;2.15;;;1.40;;
23370;SDS011;11858;51.056;3.712;2024-03-02T00:46:11;1.25;;;1.25;;
23370;SDS011;11858;51.056;3.712;2024-03-02T00:48:39;3.65;;;1.98;;
23370;SDS011;11858;51.056;3.712;2024-03-02T00:51:09;1.60;;;1.35;;
23370;SDS011;11858;51.056;3.712;2024-03-02T00:53:35;2.45;;;1.40;;
23370;SDS011;11858;51.056;3.712;2024-03-02T00:56:02;3.90;;;2.08;;
23370;SDS011;11858;51.056;3.712;2024-03-02T00:58:28;1.52;;;1.42;;
23370;SDS011;11858;51.056;3.712;2024-03-02T01:00:53;1.20;;;1.20;;
23370;SDS011;11858;51.056;3.712;2024-03-02T01:03:20;3.35;;;1.95;;
23370;SDS011;11858;51.056;3.712;2024-03-02T01:05:46;3.00;;;2.30;;
23370;SDS011;11858;51.056;3.712;2024-03-02T01:08:12;2.22;;;2.03;;
23370;SDS011;11858;51.056;3.712;2024-03-02T01:10:38;4.90;;;2.58;;
23370;SDS011;11858;51.056;3.712;2024-03-02T01:13:03;6.90;;;2.03;;
23370;SDS011;11858;51.056;3.712;2024-03-02T01:15:29;2.65;;;1.95;;
23370;SDS011;11858;51.056;3.712;2024-03-02T01:17:55;2.30;;;2.10;;
23370;SDS011;11858;51.056;3.712;2024-03-02T01:20:21;3.00;;;2.67;;
23370;SDS011;11858;51.056;3.712;2024-03-02T01:22:47;1.75;;;1.65;;
23370;SDS011;11858;51.056;3.712;2024-03-02T01:25:13;2.20;;;2.10;;
23370;SDS011;11858;51.056;3.712;2024-03-02T01:27:39;1.83;;;1.77;;
23370;SDS011;11858;51.056;3.712;2024-03-02T01:30:05;6.70;;;2.30;;
23370;SDS011;11858;51.056;3.712;2024-03-02T01:32:31;3.75;;;2.05;;
23370;SDS011;11858;51.056;3.712;2024-03-02T01:34:57;4.97;;;2.50;;
23370;SDS011;11858;51.056;3.712;2024-03-02T01:37:23;2.53;;;2.33;;
23370;SDS011;11858;51.056;3.712;2024-03-02T01:39:49;2.80;;;2.60;;
23370;SDS011;11858;51.056;3.712;2024-03-02T01:42:14;5.28;;;2.53;;
23370;SDS011;11858;51.056;3.712;2024-03-02T01:44:40;2.20;;;2.10;;
23370;SDS011;11858;51.056;3.712;2024-03-02T01:47:06;2.70;;;2.50;;
23370;SDS011;11858;51.056;3.712;2024-03-02T01:49:32;3.35;;;1.90;;
23370;SDS011;11858;51.056;3.712;2024-03-02T01:51:59;2.55;;;1.95;;
23370;SDS011;11858;51.056;3.712;2024-03-02T01:54:25;2.17;;;2.08;;
23370;SDS011;11858;51.056;3.712;2024-03-02T01:56:51;3.17;;;2.88;;
23370;SDS011;11858;51.056;3.712;2024-03-02T01:59:16;3.13;;;2.65;;
23370;SDS011;11858;51.056;3.712;2024-03-02T02:01:43;2.25;;;2.15;;
23370;SDS011;11858;51.056;3.712;2024-03-02T02:04:09;2.38;;;2.22;;
23370;SDS011;11858;51.056;3.712;2024-03-02T02:06:34;5.65;;;2.85;;
23370;SDS011;11858;51.056;3.712;2024-03-02T02:09:00;3.45;;;3.10;;
23370;SDS011;11858;51.056;3.712;2024-03-02T02:11:26;4.00;;;2.63;;
23370;SDS011;11858;51.056;3.712;2024-03-02T02:13:52;3.05;;;2.78;;
23370;SDS011;11858;51.056;3.712;2024-03-02T02:16:20;8.90;;;4.30;;
23370;SDS011;11858;51.056;3.712;2024-03-02T02:18:46;2.78;;;2.58;;
23370;SDS011;11858;51.056;3.712;2024-03-02T02:21:12;6.97;;;3.65;;
23370;SDS011;11858;51.056;3.712;2024-03-02T02:23:38;2.70;;;2.60;;
23370;SDS011;11858;51.056;3.712;2024-03-02T02:26:04;2.40;;;2.22;;
23370;SDS011;11858;51.056;3.712;2024-03-02T02:28:30;2.20;;;2.10;;
23370;SDS011;11858;51.056;3.712;2024-03-02T02:30:55;2.40;;;2.30;;
23370;SDS011;11858;51.056;3.712;2024-03-02T02:33:21;3.28;;;2.53;;
23370;SDS011;11858;51.056;3.712;2024-03-02T02:35:48;4.70;;;3.58;;
23370;SDS011;11858;51.056;3.712;2024-03-02T02:38:13;2.00;;;1.90;;
23370;SDS011;11858;51.056;3.712;2024-03-02T02:40:39;3.92;;;3.58;;
23370;SDS011;11858;51.056;3.712;2024-03-02T02:43:05;2.22;;;2.13;;
23370;SDS011;11858;51.056;3.712;2024-03-02T02:45:32;7.80;;;3.97;;
23370;SDS011;11858;51.056;3.712;2024-03-02T02:47:57;2.10;;;2.00;;
23370;SDS011;11858;51.056;3.712;2024-03-02T02:50:23;4.82;;;4.32;;
23370;SDS011;11858;51.056;3.712;2024-03-02T02:52:49;12.77;;;4.32;;
23370;SDS011;11858;51.056;3.712;2024-03-02T02:55:15;2.42;;;2.33;;
23370;SDS011;11858;51.056;3.712;2024-03-02T02:57:41;3.40;;;2.80;;
23370;SDS011;11858;51.056;3.712;2024-03-02T03:00:11;5.57;;;3.08;;
23370;SDS011;11858;51.056;3.712;2024-03-02T03:02:44;5.40;;;3.22;;
23370;SDS011;11858;51.056;3.712;2024-03-02T03:05:11;6.28;;;3.85;;
23370;SDS011;11858;51.056;3.712;2024-03-02T03:07:39;7.40;;;3.58;;
23370;SDS011;11858;51.056;3.712;2024-03-02T03:10:06;2.28;;;2.17;;
23370;SDS011;11858;51.056;3.712;2024-03-02T03:12:32;4.80;;;2.95;;
23370;SDS011;11858;51.056;3.712;2024-03-02T03:14:59;2.17;;;2.08;;
23370;SDS011;11858;51.056;3.712;2024-03-02T03:17:25;2.33;;;2.22;;
23370;SDS011;11858;51.056;3.712;2024-03-02T03:19:51;2.10;;;2.00;;
23370;SDS011;11858;51.056;3.712;2024-03-02T03:22:16;2.50;;;2.40;;
23370;SDS011;11858;51.056;3.712;2024-03-02T03:24:42;3.08;;;2.50;;
23370;SDS011;11858;51.056;3.712;2024-03-02T03:27:09;2.30;;;2.20;;
23370;SDS011;11858;51.056;3.712;2024-03-02T03:29:36;5.20;;;2.85;;
23370;SDS011;11858;51.056;3.712;2024-03-02T03:32:02;7.75;;;3.53;;
23370;SDS011;11858;51.056;3.712;2024-03-02T03:34:32;2.65;;;2.55;;
23370;SDS011;11858;51.056;3.712;2024-03-02T03:36:58;3.55;;;2.78;;
23370;SDS011;11858;51.056;3.712;2024-03-02T03:39:24;6.22;;;3.58;;
23370;SDS011;11858;51.056;3.712;2024-03-02T03:41:50;2.38;;;2.28;;
23370;SDS011;11858;51.056;3.712;2024-03-02T03:44:16;2.53;;;2.42;;
23370;SDS011;11858;51.056;3.712;2024-03-02T03:46:41;2.50;;;2.40;;
23370;SDS011;11858;51.056;3.712;2024-03-02T03:49:07;2.55;;;2.25;;
23370;SDS011;11858;51.056;3.712;2024-03-02T03:51:33;2.15;;;2.05;;
23370;SDS011;11858;51.056;3.712;2024-03-02T03:54:01;2.30;;;2.20;;
23370;SDS011;11858;51.056;3.712;2024-03-02T03:56:26;8.60;;;3.83;;
23370;SDS011;11858;51.056;3.712;2024-03-02T03:58:52;3.97;;;2.80;;
23370;SDS011;11858;51.056;3.712;2024-03-02T04:01:18;5.32;;;3.67;;
23370;SDS011;11858;51.056;3.712;2024-03-02T04:03:44;7.10;;;4.07;;
23370;SDS011;11858;51.056;3.712;2024-03-02T04:06:10;3.78;;;2.55;;
23370;SDS011;11858;51.056;3.712;2024-03-02T04:08:35;2.28;;;2.17;;
23370;SDS011;11858;51.056;3.712;2024-03-02T04:11:01;5.75;;;3.67;;
23370;SDS011;11858;51.056;3.712;2024-03-02T04:13:28;3.40;;;3.10;;
23370;SDS011;11858;51.056;3.712;2024-03-02T04:15:53;2.55;;;2.45;;
23370;SDS011;11858;51.056;3.712;2024-03-02T04:18:19;2.83;;;2.63;;
23370;SDS011;11858;51.056;3.712;2024-03-02T04:20:45;6.47;;;3.65;;
23370;SDS011;11858;51.056;3.712;2024-03-02T04:23:11;2.88;;;2.70;;
23370;SDS011;11858;51.056;3.712;2024-03-02T04:25:36;2.45;;;2.35;;
23370;SDS011;11858;51.056;3.712;2024-03-02T04:28:02;2.97;;;2.78;;
23370;SDS011;11858;51.056;3.712;2024-03-02T04:30:28;3.00;;;2.80;;
23370;SDS011;11858;51.056;3.712;2024-03-02T04:32:54;4.13;;;3.70;;
23370;SDS011;11858;51.056;3.712;2024-03-02T04:35:20;2.60;;;2.50;;
23370;SDS011;11858;51.056;3.712;2024-03-02T04:37:46;3.08;;;2.80;;
23370;SDS011;11858;51.056;3.712;2024-03-02T04:40:12;2.97;;;2.88;;
23370;SDS011;11858;51.056;3.712;2024-03-02T04:42:37;7.53;;;3.88;;
23370;SDS011;11858;51.056;3.712;2024-03-02T04:45:03;2.95;;;2.55;;
23370;SDS011;11858;51.056;3.712;2024-03-02T04:47:29;3.60;;;3.30;;
23370;SDS011;11858;51.056;3.712;2024-03-02T04:49:55;2.70;;;2.60;;
23370;SDS011;11858;51.056;3.712;2024-03-02T04:52:21;3.83;;;3.47;;
23370;SDS011;11858;51.056;3.712;2024-03-02T04:54:46;3.33;;;3.13;;
23370;SDS011;11858;51.056;3.712;2024-03-02T04:57:30;4.50;;;3.65;;
23370;SDS011;11858;51.056;3.712;2024-03-02T04:59:56;3.72;;;3.42;;
23370;SDS011;11858;51.056;3.712;2024-03-02T05:02:22;2.60;;;2.50;;
23370;SDS011;11858;51.056;3.712;2024-03-02T05:04:47;2.88;;;2.78;;
23370;SDS011;11858;51.056;3.712;2024-03-02T05:07:14;3.60;;;3.10;;
23370;SDS011;11858;51.056;3.712;2024-03-02T05:09:39;2.72;;;2.60;;
23370;SDS011;11858;51.056;3.712;2024-03-02T05:12:05;4.32;;;2.60;;
23370;SDS011;11858;51.056;3.712;2024-03-02T05:14:34;5.47;;;4.97;;
23370;SDS011;11858;51.056;3.712;2024-03-02T05:16:59;2.67;;;2.58;;
23370;SDS011;11858;51.056;3.712;2024-03-02T05:19:25;2.70;;;2.60;;
23370;SDS011;11858;51.056;3.712;2024-03-02T05:21:51;3.10;;;2.92;;
23370;SDS011;11858;51.056;3.712;2024-03-02T05:24:17;6.05;;;3.28;;
23370;SDS011;11858;51.056;3.712;2024-03-02T05:26:42;2.40;;;2.30;;
23370;SDS011;11858;51.056;3.712;2024-03-02T05:29:08;3.55;;;3.10;;
23370;SDS011;11858;51.056;3.712;2024-03-02T05:31:34;2.70;;;2.60;;
23370;SDS011;11858;51.056;3.712;2024-03-02T05:34:00;2.72;;;2.53;;
23370;SDS011;11858;51.056;3.712;2024-03-02T05:36:26;2.60;;;2.40;;
23370;SDS011;11858;51.056;3.712;2024-03-02T05:38:52;7.32;;;3.30;;
23370;SDS011;11858;51.056;3.712;2024-03-02T05:41:17;2.40;;;2.30;;
23370;SDS011;11858;51.056;3.712;2024-03-02T05:43:43;3.35;;;3.10;;
23370;SDS011;11858;51.056;3.712;2024-03-02T05:46:09;5.40;;;3.03;;
23370;SDS011;11858;51.056;3.712;2024-03-02T05:48:35;3.25;;;3.03;;
23370;SDS011;11858;51.056;3.712;2024-03-02T05:51:00;4.20;;;2.40;;
23370;SDS011;11858;51.056;3.712;2024-03-02T05:53:26;2.42;;;2.33;;
23370;SDS011;11858;51.056;3.712;2024-03-02T05:55:52;2.95;;;2.85;;
23370;SDS011;11858;51.056;3.712;2024-03-02T05:58:20;2.47;;;2.38;;
23370;SDS011;11858;51.056;3.712;2024-03-02T06:00:53;14.07;;;2.75;;
23370;SDS011;11858;51.056;3.712;2024-03-02T06:03:19;3.30;;;2.55;;
23370;SDS011;11858;51.056;3.712;2024-03-02T06:05:45;2.50;;;2.40;;
23370;SDS011;11858;51.056;3.712;2024-03-02T06:08:14;2.35;;;2.25;;
23370;SDS011;11858;51.056;3.712;2024-03-02T06:10:40;4.15;;;3.85;;
23370;SDS011;11858;51.056;3.712;2024-03-02T06:13:06;5.15;;;3.30;;
23370;SDS011;11858;51.056;3.712;2024-03-02T06:15:31;2.45;;;2.35;;
23370;SDS011;11858;51.056;3.712;2024-03-02T06:17:58;2.50;;;2.40;;
23370;SDS011;11858;51.056;3.712;2024-03-02T06:20:23;2.70;;;2.60;;
23370;SDS011;11858;51.056;3.712;2024-03-02T06:22:51;3.00;;;2.80;;
23370;SDS011;11858;51.056;3.712;2024-03-02T06:25:17;2.40;;;2.30;;
23370;SDS011;11858;51.056;3.712;2024-03-02T06:27:43;2.45;;;2.35;;
23370;SDS011;11858;51.056;3.712;2024-03-02T06:30:09;2.30;;;2.20;;
23370;SDS011;11858;51.056;3.712;2024-03-02T06:32:35;3.05;;;2.80;;
23370;SDS011;11858;51.056;3.712;2024-03-02T06:35:00;2.50;;;2.40;;
23370;SDS011;11858;51.056;3.712;2024-03-02T06:37:26;2.53;;;2.42;;
23370;SDS011;11858;51.056;3.712;2024-03-02T06:39:52;2.20;;;2.10;;
23370;SDS011;11858;51.056;3.712;2024-03-02T06:42:17;2.15;;;2.05;;
23370;SDS011;11858;51.056;3.712;2024-03-02T06:44:43;2.33;;;2.22;;
23370;SDS011;11858;51.056;3.712;2024-03-02T06:47:09;2.40;;;2.30;;
23370;SDS011;11858;51.056;3.712;2024-03-02T06:49:35;2.33;;;2.22;;
23370;SDS011;11858;51.056;3.712;2024-03-02T06:52:00;2.20;;;2.10;;
23370;SDS011;11858;51.056;3.712;2024-03-02T06:54:26;5.55;;;2.60;;
23370;SDS011;11858;51.056;3.712;2024-03-02T06:56:52;2.15;;;2.05;;
23370;SDS011;11858;51.056;3.712;2024-03-02T06:59:18;2.33;;;2.22;;
23370;SDS011;11858;51.056;3.712;2024-03-02T07:01:43;2.80;;;2.60;;
23370;SDS011;11858;51.056;3.712;2024-03-02T07:04:09;2.22;;;2.13;;
23370;SDS011;11858;51.056;3.712;2024-03-02T07:06:35;7.07;;;2.95;;
23370;SDS011;11858;51.056;3.712;2024-03-02T07:09:01;2.60;;;2.45;;
23370;SDS011;11858;51.056;3.712;2024-03-02T07:11:27;2.40;;;2.30;;
23370;SDS011;11858;51.056;3.712;2024-03-02T07:13:53;2.40;;;2.30;;
23370;SDS011;11858;51.056;3.712;2024-03-02T07:16:18;2.58;;;2.38;;
23370;SDS011;11858;51.056;3.712;2024-03-02T07:18:55;2.38;;;2.28;;
23370;SDS011;11858;51.056;3.712;2024-03-02T07:21:22;2.97;;;2.78;;
23370;SDS011;11858;51.056;3.712;2024-03-02T07:23:48;2.60;;;2.50;;
23370;SDS011;11858;51.056;3.712;2024-03-02T07:26:14;2.70;;;2.60;;
23370;SDS011;11858;51.056;3.712;2024-03-02T07:28:46;2.50;;;2.40;;
23370;SDS011;11858;51.056;3.712;2024-03-02T07:31:15;3.30;;;2.80;;
23370;SDS011;11858;51.056;3.712;2024-03-02T07:33:41;2.47;;;2.38;;
23370;SDS011;11858;51.056;3.712;2024-03-02T07:36:08;2.60;;;2.50;;
23370;SDS011;11858;51.056;3.712;2024-03-02T07:38:34;2.70;;;2.60;;
23370;SDS011;11858;51.056;3.712;2024-03-02T07:41:00;2.67;;;2.58;;
23370;SDS011;11858;51.056;3.712;2024-03-02T07:43:26;3.13;;;2.92;;
23370;SDS011;11858;51.056;3.712;2024-03-02T07:45:52;3.00;;;2.80;;
23370;SDS011;11858;51.056;3.712;2024-03-02T07:48:18;3.03;;;2.83;;
23370;SDS011;11858;51.056;3.712;2024-03-02T07:50:44;3.30;;;3.10;;
23370;SDS011;11858;51.056;3.712;2024-03-02T07:53:09;4.80;;;3.25;;
23370;SDS011;11858;51.056;3.712;2024-03-02T07:55:36;2.97;;;2.75;;
23370;SDS011;11858;51.056;3.712;2024-03-02T07:58:02;3.20;;;3.00;;
23370;SDS011;11858;51.056;3.712;2024-03-02T08:00:28;5.82;;;4.35;;
23370;SDS011;11858;51.056;3.712;2024-03-02T08:02:53;5.95;;;5.55;;
23370;SDS011;11858;51.056;3.712;2024-03-02T08:05:20;7.80;;;7.30;;
23370;SDS011;11858;51.056;3.712;2024-03-02T08:07:46;10.00;;;9.40;;
23370;SDS011;11858;51.056;3.712;2024-03-02T08:10:13;11.38;;;10.68;;
23370;SDS011;11858;51.056;3.712;2024-03-02T08:12:39;13.60;;;12.80;;
23370;SDS011;11858;51.056;3.712;2024-03-02T08:15:05;13.93;;;13.10;;
23370;SDS011;11858;51.056;3.712;2024-03-02T08:17:31;15.63;;;14.65;;
23370;SDS011;11858;51.056;3.712;2024-03-02T08:19:57;16.80;;;15.50;;
23370;SDS011;11858;51.056;3.712;2024-03-02T08:22:23;16.52;;;15.52;;
23370;SDS011;11858;51.056;3.712;2024-03-02T08:24:52;16.70;;;15.70;;
23370;SDS011;11858;51.056;3.712;2024-03-02T08:27:17;18.20;;;16.75;;
23370;SDS011;11858;51.056;3.712;2024-03-02T08:29:43;19.38;;;17.95;;
23370;SDS011;11858;51.056;3.712;2024-03-02T08:32:09;19.52;;;18.23;;
23370;SDS011;11858;51.056;3.712;2024-03-02T08:34:35;19.42;;;18.23;;
23370;SDS011;11858;51.056;3.712;2024-03-02T08:37:01;20.35;;;19.05;;
23370;SDS011;11858;51.056;3.712;2024-03-02T08:39:27;21.00;;;19.60;;
23370;SDS011;11858;51.056;3.712;2024-03-02T08:41:53;20.75;;;19.00;;
23370;SDS011;11858;51.056;3.712;2024-03-02T08:44:19;20.85;;;19.35;;
23370;SDS011;11858;51.056;3.712;2024-03-02T08:46:45;19.77;;;18.40;;
23370;SDS011;11858;51.056;3.712;2024-03-02T08:49:12;20.15;;;18.85;;
23370;SDS011;11858;51.056;3.712;2024-03-02T08:51:38;20.05;;;18.50;;
23370;SDS011;11858;51.056;3.712;2024-03-02T08:54:04;20.33;;;18.83;;
23370;SDS011;11858;51.056;3.712;2024-03-02T08:56:30;18.75;;;17.65;;
23370;SDS011;11858;51.056;3.712;2024-03-02T08:58:56;20.02;;;18.60;;
23370;SDS011;11858;51.056;3.712;2024-03-02T09:01:23;18.83;;;17.63;;
23370;SDS011;11858;51.056;3.712;2024-03-02T09:03:48;19.38;;;17.75;;
23370;SDS011;11858;51.056;3.712;2024-03-02T09:06:14;19.80;;;18.05;;
23370;SDS011;11858;51.056;3.712;2024-03-02T09:08:45;21.90;;;18.63;;
23370;SDS011;11858;51.056;3.712;2024-03-02T09:11:11;17.40;;;16.30;;
23370;SDS011;11858;51.056;3.712;2024-03-02T09:13:37;18.58;;;17.00;;
23370;SDS011;11858;51.056;3.712;2024-03-02T09:16:03;17.15;;;16.15;;
23370;SDS011;11858;51.056;3.712;2024-03-02T09:18:30;19.45;;;18.02;;
23370;SDS011;11858;51.056;3.712;2024-03-02T09:20:56;17.50;;;16.50;;
23370;SDS011;11858;51.056;3.712;2024-03-02T09:23:22;19.13;;;17.83;;
23370;SDS011;11858;51.056;3.712;2024-03-02T09:25:47;19.50;;;17.77;;
23370;SDS011;11858;51.056;3.712;2024-03-02T09:28:15;19.42;;;17.85;;
23370;SDS011;11858;51.056;3.712;2024-03-02T09:30:41;19.27;;;17.88;;
23370;SDS011;11858;51.056;3.712;2024-03-02T09:33:06;18.13;;;16.92;;
23370;SDS011;11858;51.056;3.712;2024-03-02T09:35:32;18.95;;;17.05;;
23370;SDS011;11858;51.056;3.712;2024-03-02T09:37:58;18.55;;;17.15;;
23370;SDS011;11858;51.056;3.712;2024-03-02T09:40:24;17.52;;;16.35;;
23370;SDS011;11858;51.056;3.712;2024-03-02T09:42:50;17.02;;;16.02;;
23370;SDS011;11858;51.056;3.712;2024-03-02T09:45:22;17.08;;;16.08;;
23370;SDS011;11858;51.056;3.712;2024-03-02T09:50:14;18.90;;;17.40;;
23370;SDS011;11858;51.056;3.712;2024-03-02T09:52:42;37.65;;;18.92;;
23370;SDS011;11858;51.056;3.712;2024-03-02T09:55:08;18.95;;;17.40;;
23370;SDS011;11858;51.056;3.712;2024-03-02T09:57:35;19.42;;;17.80;;
23370;SDS011;11858;51.056;3.712;2024-03-02T10:00:01;18.95;;;17.42;;
23370;SDS011;11858;51.056;3.712;2024-03-02T10:02:27;19.23;;;18.02;;
23370;SDS011;11858;51.056;3.712;2024-03-02T10:04:53;19.23;;;17.77;;
23370;SDS011;11858;51.056;3.712;2024-03-02T10:07:18;18.73;;;17.63;;
23370;SDS011;11858;51.056;3.712;2024-03-02T10:09:48;19.65;;;18.35;;
23370;SDS011;11858;51.056;3.712;2024-03-02T10:12:15;20.58;;;19.17;;
23370;SDS011;11858;51.056;3.712;2024-03-02T10:14:42;19.23;;;18.02;;
23370;SDS011;11858;51.056;3.712;2024-03-02T10:17:09;21.05;;;19.50;;
23370;SDS011;11858;51.056;3.712;2024-03-02T10:19:38;18.50;;;17.30;;
23370;SDS011;11858;51.056;3.712;2024-03-02T10:22:05;19.20;;;17.73;;
23370;SDS011;11858;51.056;3.712;2024-03-02T10:24:42;19.50;;;18.30;;
23370;SDS011;11858;51.056;3.712;2024-03-02T10:27:44;18.00;;;16.90;;
23370;SDS011;11858;51.056;3.712;2024-03-02T10:30:03;18.70;;;17.50;;
23370;SDS011;11858;51.056;3.712;2024-03-02T10:32:31;18.60;;;17.50;;
23370;SDS011;11858;51.056;3.712;2024-03-02T10:34:56;18.80;;;17.67;;
23370;SDS011;11858;51.056;3.712;2024-03-02T10:37:24;20.02;;;18.73;;
23370;SDS011;11858;51.056;3.712;2024-03-02T10:39:51;18.35;;;17.25;;
23370;SDS011;11858;51.056;3.712;2024-03-02T10:42:17;20.33;;;18.88;;
23370;SDS011;11858;51.056;3.712;2024-03-02T10:44:44;20.15;;;18.60;;
23370;SDS011;11858;51.056;3.712;2024-03-02T10:47:10;20.42;;;18.85;;
23370;SDS011;11858;51.056;3.712;2024-03-02T10:49:38;19.40;;;17.90;;
23370;SDS011;11858;51.056;3.712;2024-03-02T10:52:08;19.05;;;17.40;;
23370;SDS011;11858;51.056;3.712;2024-03-02T10:54:34;19.52;;;18.33;;
23370;SDS011;11858;51.056;3.712;2024-03-02T10:57:04;19.83;;;18.15;;
23370;SDS011;11858;51.056;3.712;2024-03-02T10:59:35;18.42;;;17.23;;
23370;SDS011;11858;51.056;3.712;2024-03-02T11:02:04;20.10;;;18.60;;
23370;SDS011;11858;51.056;3.712;2024-03-02T11:04:32;18.95;;;17.75;;
23370;SDS011;11858;51.056;3.712;2024-03-02T11:07:02;20.27;;;18.77;;
23370;SDS011;11858;51.056;3.712;2024-03-02T11:09:36;20.73;;;19.02;;
23370;SDS011;11858;51.056;3.712;2024-03-02T11:12:09;19.58;;;18.30;;
23370;SDS011;11858;51.056;3.712;2024-03-02T11:14:41;19.58;;;18.27;;
23370;SDS011;11858;51.056;3.712;2024-03-02T11:17:10;21.77;;;19.88;;
23370;SDS011;11858;51.056;3.712;2024-03-02T11:19:40;18.98;;;17.77;;
23370;SDS011;11858;51.056;3.712;2024-03-02T11:22:07;19.30;;;17.75;;
23370;SDS011;11858;51.056;3.712;2024-03-02T11:24:34;19.75;;;18.48;;
23370;SDS011;11858;51.056;3.712;2024-03-02T11:27:00;19.23;;;18.02;;
23370;SDS011;11858;51.056;3.712;2024-03-02T11:32:20;19.75;;;18.00;;
23370;SDS011;11858;51.056;3.712;2024-03-02T11:34:48;19.67;;;18.35;;
23370;SDS011;11858;51.056;3.712;2024-03-02T11:37:16;18.45;;;17.05;;
23370;SDS011;11858;51.056;3.712;2024-03-02T11:39:44;17.92;;;16.83;;
23370;SDS011;11858;51.056;3.712;2024-03-02T11:42:10;18.95;;;17.83;;
23370;SDS011;11858;51.056;3.712;2024-03-02T11:44:39;18.88;;;17.55;;
23370;SDS011;11858;51.056;3.712;2024-03-02T11:47:06;18.38;;;17.25;;
23370;SDS011;11858;51.056;3.712;2024-03-02T11:49:51;19.05;;;17.67;;
23370;SDS011;11858;51.056;3.712;2024-03-02T11:52:18;17.95;;;16.85;;
23370;SDS011;11858;51.056;3.712;2024-03-02T11:54:45;18.40;;;17.02;;
23370;SDS011;11858;51.056;3.712;2024-03-02T11:57:12;18.13;;;17.02;;
23370;SDS011;11858;51.056;3.712;2024-03-02T11:59:41;25.00;;;18.08;;
23370;SDS011;11858;51.056;3.712;2024-03-02T12:02:12;18.65;;;17.42;;
23370;SDS011;11858;51.056;3.712;2024-03-02T12:04:42;20.85;;;18.95;;
23370;SDS011;11858;51.056;3.712;2024-03-02T12:07:08;20.15;;;18.63;;
23370;SDS011;11858;51.056;3.712;2024-03-02T12:09:34;18.95;;;17.58;;
23370;SDS011;11858;51.056;3.712;2024-03-02T12:12:07;19.60;;;18.08;;
23370;SDS011;11858;51.056;3.712;2024-03-02T12:14:35;18.58;;;17.33;;
23370;SDS011;11858;51.056;3.712;2024-03-02T12:17:02;18.77;;;17.17;;
23370;SDS011;11858;51.056;3.712;2024-03-02T12:19:29;16.65;;;15.63;;
23370;SDS011;11858;51.056;3.712;2024-03-02T12:21:58;18.00;;;16.65;;
23370;SDS011;11858;51.056;3.712;2024-03-02T12:24:26;18.83;;;16.85;;
23370;SDS011;11858;51.056;3.712;2024-03-02T12:26:53;16.08;;;14.98;;
23370;SDS011;11858;51.056;3.712;2024-03-02T12:29:19;15.20;;;14.30;;
23370;SDS011;11858;51.056;3.712;2024-03-02T12:31:49;23.30;;;14.57;;
23370;SDS011;11858;51.056;3.712;2024-03-02T12:34:15;15.35;;;14.10;;
23370;SDS011;11858;51.056;3.712;2024-03-02T12:36:42;15.52;;;14.23;;
23370;SDS011;11858;51.056;3.712;2024-03-02T12:39:12;20.05;;;14.93;;
23370;SDS011;11858;51.056;3.712;2024-03-02T12:41:38;13.65;;;12.75;;
23370;SDS011;11858;51.056;3.712;2024-03-02T12:44:05;13.18;;;12.05;;
23370;SDS011;11858;51.056;3.712;2024-03-02T12:46:31;10.80;;;10.20;;
23370;SDS011;11858;51.056;3.712;2024-03-02T12:49:05;10.80;;;10.20;;
23370;SDS011;11858;51.056;3.712;2024-03-02T12:51:35;9.93;;;9.32;;
23370;SDS011;11858;51.056;3.712;2024-03-02T12:54:01;8.95;;;8.45;;
23370;SDS011;11858;51.056;3.712;2024-03-02T12:56:28;9.38;;;8.75;;
23370;SDS011;11858;51.056;3.712;2024-03-02T12:58:55;6.80;;;6.40;;
23370;SDS011;11858;51.056;3.712;2024-03-02T13:01:21;5.50;;;5.20;;
23370;SDS011;11858;51.056;3.712;2024-03-02T13:03:50;5.93;;;5.05;;
23370;SDS011;11858;51.056;3.712;2024-03-02T13:06:17;4.30;;;4.05;;
23370;SDS011;11858;51.056;3.712;2024-03-02T13:08:44;4.00;;;3.80;;
23370;SDS011;11858;51.056;3.712;2024-03-02T13:11:10;5.30;;;4.53;;
23370;SDS011;11858;51.056;3.712;2024-03-02T13:13:38;3.67;;;3.47;;
23370;SDS011;11858;51.056;3.712;2024-03-02T13:16:10;3.33;;;3.20;;
23370;SDS011;11858;51.056;3.712;2024-03-02T13:18:41;3.03;;;2.92;;
23370;SDS011;11858;51.056;3.712;2024-03-02T13:21:07;2.90;;;2.80;;
23370;SDS011;11858;51.056;3.712;2024-03-02T13:23:34;4.00;;;3.28;;
23370;SDS011;11858;51.056;3.712;2024-03-02T13:25:59;3.15;;;2.95;;
23370;SDS011;11858;51.056;3.712;2024-03-02T13:28:26;3.00;;;2.90;;
23370;SDS011;11858;51.056;3.712;2024-03-02T13:30:51;2.90;;;2.80;;
23370;SDS011;11858;51.056;3.712;2024-03-02T13:33:18;3.13;;;3.03;;
23370;SDS011;11858;51.056;3.712;2024-03-02T13:35:48;2.80;;;2.70;;
23370;SDS011;11858;51.056;3.712;2024-03-02T13:38:15;2.90;;;2.80;;
23370;SDS011;11858;51.056;3.712;2024-03-02T13:40:44;2.60;;;2.50;;
23370;SDS011;11858;51.056;3.712;2024-03-02T13:43:11;2.70;;;2.60;;
23370;SDS011;11858;51.056;3.712;2024-03-02T13:45:37;3.33;;;3.13;;
23370;SDS011;11858;51.056;3.712;2024-03-02T13:48:03;2.80;;;2.70;;
23370;SDS011;11858;51.056;3.712;2024-03-02T13:50:30;2.50;;;2.40;;
23370;SDS011;11858;51.056;3.712;2024-03-02T13:52:55;2.55;;;2.45;;
23370;SDS011;11858;51.056;3.712;2024-03-02T13:55:22;2.60;;;2.50;;
23370;SDS011;11858;51.056;3.712;2024-03-02T13:57:47;3.00;;;2.90;;
23370;SDS011;11858;51.056;3.712;2024-03-02T14:00:15;2.70;;;2.60;;
23370;SDS011;11858;51.056;3.712;2024-03-02T14:02:42;2.50;;;2.40;;
23370;SDS011;11858;51.056;3.712;2024-03-02T14:05:08;3.00;;;2.80;;
23370;SDS011;11858;51.056;3.712;2024-03-02T14:07:37;2.70;;;2.60;;
23370;SDS011;11858;51.056;3.712;2024-03-02T14:10:03;2.50;;;2.40;;
23370;SDS011;11858;51.056;3.712;2024-03-02T14:12:29;2.60;;;2.50;;
23370;SDS011;11858;51.056;3.712;2024-03-02T14:14:55;2.50;;;2.40;;
23370;SDS011;11858;51.056;3.712;2024-03-02T14:17:24;5.90;;;3.00;;
23370;SDS011;11858;51.056;3.712;2024-03-02T14:19:50;2.80;;;2.70;;
23370;SDS011;11858;51.056;3.712;2024-03-02T14:22:17;2.80;;;2.70;;
23370;SDS011;11858;51.056;3.712;2024-03-02T14:24:43;3.60;;;3.40;;
23370;SDS011;11858;51.056;3.712;2024-03-02T14:27:09;12.48;;;3.72;;
23370;SDS011;11858;51.056;3.712;2024-03-02T14:29:34;2.97;;;2.88;;
23370;SDS011;11858;51.056;3.712;2024-03-02T14:32:03;2.90;;;2.80;;
23370;SDS011;11858;51.056;3.712;2024-03-02T14:34:29;2.90;;;2.75;;
23370;SDS011;11858;51.056;3.712;2024-03-02T14:36:55;2.80;;;2.70;;
23370;SDS011;11858;51.056;3.712;2024-03-02T14:39:21;2.60;;;2.50;;
23370;SDS011;11858;51.056;3.712;2024-03-02T14:41:47;2.70;;;2.60;;
23370;SDS011;11858;51.056;3.712;2024-03-02T14:44:13;4.88;;;3.28;;
23370;SDS011;11858;51.056;3.712;2024-03-02T14:46:40;3.08;;;2.88;;